Central Sonoma County Latest

37 Stations

15 Minute Data | America/Los_Angeles
as of 9/2/26 1:51 AM PDT
Station Date Time Temp (°F) RH (%) Dew Pt (°F) Wind Spd (mph) Wind Dir (°) Wind Gust (mph) Latest Rain (In) Daily Rain (In) Daily Max Temp (°F) Daily Min Temp (°F)
Windsor-NW (Ranch 8) 9/2/26 0145 60.7   7.9 82   1 55.1   7.3 0.0   0.0 ESE | 110 0.0   0.0 0.00 0.00 60.7   7.5 60.4   8.1
Windsor-East (Ranch 16) 9/2/26 0145 60.9   6.8 85   8 56.4   4.4 0.1   1.2 E | 92 1.1   1.6 0.00 0.00 61.0   6.6 60.7   7.9
Mark West-North (Ranch 14) 9/2/26 0145 61.0   8.6 84   9 56.3   5.7 0.2   0.1 W | 260 1.8   0.4 0.00 0.00 61.2   7.4 60.8   8.8
Windsor-SE (Silk Rd) 9/2/26 0145 60.2   11.6 90   3 57.2   10.6 0.3   0.1 NNE | 27 1.3   0.5 0.00 0.00 60.6   11.2 60.1   12.1
Fulton-NW (Ranch 5) 9/2/26 0145 61.2   10.4 86   7 57.0   8.2 0.7   0.5 ESE | 102 1.9   0.6 0.00 0.00 61.3   9.6 60.9   10.4
Bisordi (Fulton) 9/2/26 0145 61.1   9.4 86   8 57.0   7.1 0.3   0.8 E | 98 2.2   0.9 0.00 0.00 61.2   9.2 60.8   11.6
Windsor-South (Laughlin Rd) 9/2/26 0145 60.7   8.0 86   6 56.4   6.1 - - - 0.00 0.00 60.9   7.1 60.4   8.5
Fulton-SE (Barnes Rd) 9/2/26 0145 61.7   9.1 83   8 56.5   6.5 0.6   0.4 E | 97 1.8   0.4 0.00 0.00 61.8   8.4 61.7   10.1
Fulton-SW (Ranch 21) 9/2/26 0145 60.8   8.9 85   7 56.3   6.5 0.5   0.5 ESE | 122 1.5   0.5 0.00 0.00 60.9   8.7 60.7   9.0
NW Santa Rosa (Piner Road) 9/2/26 0145 60.7   10.5 100   0 60.8   10.5 0.5   0.3 E | 95 1.8   0.9 0.00 0.00 60.8   9.6 60.5   11.8
River Rd South (Denner Ranch) 9/2/26 0145 59.2   9.6 0   0 -59.2   8.7 0.8   0.3 NNW | 344 2.0   0.0 - - 59.5   7.6 58.8   9.8
West Santa Rosa (LOV Vineyard) 8/26/26 0900 53.3   5.2 97   6 52.4   3.5 1.0   0.1 SW | 224 3.6   0.0 0.00 0.00 53.6   5.2 50.2   1.8
Guerneville Rd (Prokopakis) 9/2/26 0145 60.1   10.4 90   3 57.0   9.4 - - - 0.00 0.00 60.4   9.9 60.0   10.6
SunnyView Vineyard (SCWC) 9/2/26 0145 60.4   12.9 85   7 55.9   10.6 0.3   0.3 SE | 134 2.2   2.2 0.00 0.00 60.4   12.3 60.2   13.4
Guerneville Rd West (Balletto) 9/2/26 0145 60.6   11.7 91   2 58.1   11.0 0.7   0.7 SE | 125 1.5   1.1 0.00 0.00 60.8   10.4 60.4   11.6
Sanchietti Ranch 9/2/26 0145 59.6   9.4 89   3 56.4   8.3 1.7   0.8 ESE | 111 2.4   0.4 0.00 0.00 61.2   9.8 59.6   9.5
Occidental Rd (Sebastopol) 9/2/26 0145 59.1   8.2 100   0 59.1   8.2 0.0   0.0 N | 0 0.0   0.9 0.00 0.00 59.9   7.3 58.5   8.4
Harper's Rest (Windsor-West) 9/2/26 0145 58.3   9.1 88   6 54.8   7.3 0.0   0.7 N | 0 0.0   1.9 0.00 0.00 58.4   7.8 58.3   9.3
Lower Westside Rd (Ranch 12) 9/2/26 0145 59.4   10.1 87   6 55.5   8.1 0.2   0.2 WSW | 256 1.1   1.1 0.00 0.00 59.9   9.0 59.4   10.3
Guerneville (Laughlin Rd) 9/2/26 0145 58.5   11.5 88   2 54.8   10.6 0.0   0.0 N | 0 0.0   0.0 0.00 0.00 58.6   10.3 58.0   11.0
Korbel (Winery) 9/2/26 0145 59.5   9.2 90   5 56.6   7.8 0.0   0.2 N | 0 0.0   1.2 0.00 0.00 59.5   8.2 59.4   10.0
Forestville (Shone Farms) 9/2/26 0145 60.2   6.3 89   4 57.0   5.2 0.5   1.4 NE | 52 1.8   1.3 0.00 0.00 61.7   5.4 59.4   6.4
Forestville-NE (Ranch 30) 9/2/26 0145 58.8   7.1 92   6 56.4   5.5 0.1   0.3 NE | 41 1.3   0.5 0.00 0.00 58.8   5.5 58.5   8.7
Foggy Bend (Ranch 41) 9/2/26 0145 59.8   7.7 88   6 56.1   5.9 0.0   0.8 N | 0 0.0   2.7 0.00 0.00 59.8   5.9 59.7   8.0
Last Stop 9/2/26 0145 59.3   10.4 85   8 54.9   8.0 1.4   1.4 NW | 305 3.0   3.0 0.00 0.00 59.8   9.6 59.3   10.4
Green Valley Vineyard 9/2/26 0145 59.1   8.0 91   5 56.4   6.6 0.1   0.1 SE | 144 2.4   1.3 0.00 0.00 59.5   7.8 58.8   8.2
Park Royal 9/2/26 0145 61.0   10.3 84   7 56.0   7.9 - - - 0.00 0.00 61.0   10.2 60.9   11.1
Merino 9/2/26 0145 59.3   11.5 93   6 57.2   9.9 0.4   0.3 ESE | 107 1.4   0.0 0.00 0.00 59.6   11.0 59.0   11.8
Green Valley (Sanchietti) 9/2/26 0145 58.9   13.7 - - - - - - - 59.9   9.0 58.8   13.9
Keefer Ranch (Green Valley) 9/2/26 0145 59.4   11.8 89   5 56.3   10.3 - - - 0.00 0.00 59.9   11.2 59.4   11.8
Graton-West (Dutton Ranch) 9/2/26 0145 61.0   12.3 100   0 61.0   12.3 0.5   0.4 SSE | 157 2.1   0.7 0.00 0.00 61.4   11.1 60.7   12.3
Graton-South (Mill Station Rd) 9/2/26 0145 59.5   6.2 90   5 56.5   4.6 0.0   0.0 N | 0 0.0   0.0 0.00 0.00 60.7   6.1 59.0   6.9
Occidental (Horseshoe Bend) 9/2/26 0145 58.7   7.7 95   0 57.3   7.6 - - - 0.00 0.00 58.7   6.1 58.4   7.8
Sexton Valley (Jacqueline's Blk) 9/2/26 0145 58.6   5.0 93   2 56.6   4.4 0.1   0.3 S | 169 0.9   0.8 0.00 0.00 60.1   5.0 58.1   4.9
Sebastopol Hills (Burnside Rd) 9/2/26 0145 58.7   4.1 95   4 57.3   3.0 0.0   3.5 SE | 141 0.7   6.5 0.00 0.00 59.3   4.4 58.6   4.0
Pleasant Hill 9/2/26 0145 57.8   3.9 93   2 55.7   3.3 0.2   1.7 S | 188 1.1   3.7 0.00 0.00 58.5   3.9 57.3   3.6
Seaview/Fort Ross (Hirsch) 9/2/26 0145 55.4   0.6 95   12 54.0   4.5 2.0   2.3 S | 187 7.5   1.4 0.00 0.00 55.6   0.5 55.3   1.8
Max     61.7 100 61.0 2.0 - 7.5 0.00 0.00 61.8 61.7
Avg     59.7 87 53.3 0.4 - 1.5 0.00 - - -
Min     55.4 0 -59.2 0.0 - 0.0 0.00 0.00 55.6 55.3